createdAt,value
2022-09-11T00:01:29.566Z,99.90
2022-09-11T00:03:57.516Z,99.90
2022-09-11T00:06:30.592Z,99.90
2022-09-11T00:09:01.859Z,99.90
2022-09-11T00:11:30.897Z,99.90
2022-09-11T00:13:59.136Z,99.90
2022-09-11T00:16:37.439Z,99.90
2022-09-11T00:19:08.845Z,99.90
2022-09-11T00:21:36.811Z,99.90
2022-09-11T00:24:04.615Z,99.90
2022-09-11T00:26:32.505Z,99.90
2022-09-11T00:29:02.341Z,99.90
2022-09-11T00:31:30.489Z,99.90
2022-09-11T00:33:58.220Z,99.90
2022-09-11T00:36:28.800Z,99.90
2022-09-11T00:38:56.720Z,99.90
2022-09-11T00:41:29.046Z,99.90
2022-09-11T00:44:19.627Z,99.90
2022-09-11T00:46:48.606Z,99.90
2022-09-11T00:49:19.744Z,99.90
2022-09-11T00:51:49.012Z,99.90
2022-09-11T00:54:18.124Z,99.90
2022-09-11T00:56:46.041Z,99.90
2022-09-11T00:59:13.870Z,99.90
2022-09-11T01:01:42.201Z,99.90
2022-09-11T01:04:09.805Z,99.90
2022-09-11T01:06:37.569Z,99.90
2022-09-11T01:09:05.196Z,99.90
2022-09-11T01:11:44.532Z,99.90
2022-09-11T01:14:34.285Z,99.90
2022-09-11T01:17:22.731Z,99.90
2022-09-11T01:20:09.002Z,99.90
2022-09-11T01:23:05.776Z,99.90
2022-09-11T01:25:57.921Z,99.90
2022-09-11T01:28:34.077Z,99.90
2022-09-11T01:31:06.630Z,99.90
2022-09-11T01:33:47.946Z,99.90
2022-09-11T01:36:21.880Z,99.90
2022-09-11T01:38:52.207Z,99.90
2022-09-11T01:41:30.545Z,99.90
2022-09-11T01:44:03.285Z,99.90
2022-09-11T01:46:32.404Z,99.90
2022-09-11T01:49:28.845Z,99.90
2022-09-11T01:52:00.711Z,99.90
2022-09-11T01:54:33.637Z,99.90
2022-09-11T01:57:08.618Z,99.90
2022-09-11T01:59:46.075Z,99.90
2022-09-11T02:02:17.706Z,99.90
2022-09-11T02:05:06.773Z,99.90
2022-09-11T02:08:00.746Z,99.90
2022-09-11T02:10:33.537Z,99.90
2022-09-11T02:13:27.705Z,99.90
2022-09-11T02:16:02.415Z,99.90
2022-09-11T02:18:43.957Z,99.90
2022-09-11T02:21:17.511Z,99.90
2022-09-11T02:23:49.096Z,99.90
2022-09-11T02:26:19.589Z,99.90
2022-09-11T02:28:50.271Z,99.90
2022-09-11T02:31:21.932Z,99.90
2022-09-11T02:33:51.469Z,99.90
2022-09-11T02:36:50.788Z,99.90
2022-09-11T02:39:36.239Z,99.90
2022-09-11T02:42:40.344Z,99.90
2022-09-11T02:45:30.479Z,99.90
2022-09-11T02:48:23.656Z,99.90
2022-09-11T02:51:14.563Z,99.90
2022-09-11T02:54:03.189Z,99.90
2022-09-11T02:56:38.528Z,99.90
2022-09-11T02:59:11.268Z,99.90
2022-09-11T03:01:50.100Z,99.90
2022-09-11T03:04:19.368Z,99.90
2022-09-11T03:06:50.592Z,99.90
2022-09-11T03:09:19.855Z,99.90
2022-09-11T03:11:49.300Z,99.90
2022-09-11T03:14:22.746Z,99.90
2022-09-11T03:16:51.210Z,99.90
2022-09-11T03:19:20.189Z,99.90
2022-09-11T03:21:48.770Z,99.90
2022-09-11T03:24:17.565Z,99.90
2022-09-11T03:26:47.975Z,99.90
2022-09-11T03:29:16.288Z,99.90
2022-09-11T03:31:44.838Z,99.90
2022-09-11T03:34:14.380Z,99.90
2022-09-11T03:36:44.204Z,99.90
2022-09-11T03:39:14.748Z,99.90
2022-09-11T03:41:44.455Z,99.90
2022-09-11T03:44:16.221Z,99.90
2022-09-11T03:46:47.042Z,99.90
2022-09-11T03:49:16.976Z,99.90
2022-09-11T03:51:48.913Z,99.90
2022-09-11T03:54:19.448Z,99.90
2022-09-11T03:56:50.389Z,99.90
2022-09-11T03:59:24.093Z,99.90
2022-09-11T04:02:05.637Z,99.90
2022-09-11T04:04:52.899Z,99.90
2022-09-11T04:07:22.518Z,99.90
2022-09-11T04:09:52.834Z,99.90
2022-09-11T04:12:21.346Z,99.90
2022-09-11T04:14:52.381Z,99.90
2022-09-11T04:17:27.791Z,99.90
2022-09-11T04:19:58.328Z,99.90
2022-09-11T04:22:27.682Z,99.90
2022-09-11T04:25:02.656Z,99.90
2022-09-11T04:27:30.656Z,99.90
2022-09-11T04:29:59.396Z,99.90
2022-09-11T04:32:29.019Z,99.90
2022-09-11T04:34:59.633Z,99.90
2022-09-11T04:37:28.683Z,99.90
2022-09-11T04:39:57.051Z,99.90
2022-09-11T04:42:25.566Z,99.90
2022-09-11T04:44:54.171Z,99.90
2022-09-11T04:47:23.414Z,99.90
2022-09-11T04:49:53.013Z,99.90
2022-09-11T04:52:23.579Z,99.90
2022-09-11T04:54:53.432Z,99.90
2022-09-11T04:57:22.138Z,99.90
2022-09-11T04:59:51.291Z,99.90
2022-09-11T05:02:20.339Z,99.90
2022-09-11T05:04:49.402Z,99.90
2022-09-11T05:07:17.603Z,99.90
2022-09-11T05:09:47.185Z,99.90
2022-09-11T05:12:15.641Z,99.90
2022-09-11T05:14:44.251Z,99.90
2022-09-11T05:17:16.761Z,99.90
2022-09-11T05:19:47.979Z,99.90
2022-09-11T05:22:19.292Z,99.90
2022-09-11T05:24:48.973Z,99.90
2022-09-11T05:27:22.150Z,99.90
2022-09-11T05:29:52.836Z,99.90
2022-09-11T05:32:25.822Z,99.90
2022-09-11T05:35:16.558Z,99.90
2022-09-11T05:43:18.245Z,99.90
2022-09-11T05:45:57.216Z,99.90
2022-09-11T05:48:28.109Z,99.90
2022-09-11T05:54:21.217Z,99.90
2022-09-11T05:56:56.310Z,99.90
2022-09-11T05:59:29.985Z,99.90
2022-09-11T06:02:13.957Z,99.90
2022-09-11T06:04:45.236Z,99.90
2022-09-11T06:07:30.491Z,99.90
2022-09-11T06:10:06.213Z,99.90
2022-09-11T06:12:40.973Z,99.90
2022-09-11T06:15:36.295Z,99.90
2022-09-11T06:18:12.652Z,99.90
2022-09-11T06:21:07.322Z,99.90
2022-09-11T06:23:42.052Z,99.90
2022-09-11T06:26:33.428Z,99.90
2022-09-11T06:29:02.747Z,99.90
2022-09-11T06:31:34.661Z,99.90
2022-09-11T06:34:06.427Z,99.90
2022-09-11T06:36:39.718Z,99.90
2022-09-11T06:39:19.829Z,99.90
2022-09-11T06:41:55.436Z,99.90
2022-09-11T06:44:27.000Z,99.90
2022-09-11T06:46:58.774Z,99.90
2022-09-11T06:49:29.686Z,99.90
2022-09-11T06:51:58.000Z,99.90
2022-09-11T06:54:27.392Z,99.90
2022-09-11T06:56:58.208Z,99.90
2022-09-11T06:59:32.633Z,99.90
2022-09-11T07:02:03.753Z,99.90
2022-09-11T07:04:36.180Z,99.90
2022-09-11T07:07:08.420Z,99.90
2022-09-11T07:09:40.998Z,99.90
2022-09-11T07:12:11.636Z,99.90
2022-09-11T07:23:11.130Z,99.90
2022-09-11T07:28:45.750Z,99.90
2022-09-11T07:31:27.542Z,99.90
2022-09-11T07:34:12.047Z,99.90
2022-09-11T07:36:40.253Z,99.90
2022-09-11T07:39:08.538Z,99.90
2022-09-11T07:41:37.763Z,99.90
2022-09-11T07:44:09.921Z,99.90
2022-09-11T07:46:41.914Z,99.90
2022-09-11T07:49:10.686Z,99.90
2022-09-11T07:51:39.743Z,99.90
2022-09-11T07:54:08.535Z,99.90
2022-09-11T07:56:37.159Z,99.90
2022-09-11T07:59:09.392Z,99.90
2022-09-11T08:01:37.768Z,99.90
2022-09-11T08:04:07.778Z,99.90
2022-09-11T08:06:37.469Z,99.90
2022-09-11T08:09:08.178Z,99.90
2022-09-11T08:11:40.551Z,99.90
2022-09-11T08:14:08.675Z,99.90
2022-09-11T08:16:39.942Z,99.90
2022-09-11T08:19:10.716Z,99.90
2022-09-11T08:21:43.174Z,99.90
2022-09-11T08:24:22.128Z,99.90
2022-09-11T08:26:54.924Z,99.90
2022-09-11T08:34:59.669Z,99.90
2022-09-11T08:37:35.686Z,99.90
2022-09-11T08:40:04.902Z,99.90
2022-09-11T08:42:50.929Z,99.90
2022-09-11T08:45:25.240Z,99.90
2022-09-11T08:51:12.025Z,99.90
2022-09-11T08:53:50.432Z,99.90
2022-09-11T08:57:13.652Z,99.90
2022-09-11T09:00:39.909Z,99.90
2022-09-11T09:03:35.881Z,98.10
2022-09-11T09:07:11.303Z,97.60
2022-09-11T09:10:13.008Z,97.00
2022-09-11T09:13:04.653Z,97.80
2022-09-11T09:16:17.521Z,96.70
2022-09-11T09:18:49.326Z,97.20
2022-09-11T09:21:36.238Z,96.10
2022-09-11T09:24:06.187Z,96.40
2022-09-11T09:26:42.738Z,97.30
2022-09-11T09:29:16.853Z,97.70
2022-09-11T09:31:46.645Z,97.50
2022-09-11T09:34:15.865Z,96.30
2022-09-11T09:37:05.393Z,94.90
2022-09-11T09:39:33.693Z,96.00
2022-09-11T09:42:16.875Z,96.40
2022-09-11T09:44:56.050Z,94.20
2022-09-11T09:47:24.384Z,95.60
2022-09-11T09:49:52.867Z,95.20
2022-09-11T09:52:27.064Z,95.60
2022-09-11T09:55:05.549Z,93.40
2022-09-11T09:57:35.007Z,93.70
2022-09-11T10:00:10.482Z,94.50
2022-09-11T10:02:56.656Z,92.40
2022-09-11T10:05:35.300Z,92.50
2022-09-11T10:08:38.265Z,92.70
2022-09-11T10:11:13.297Z,94.10
2022-09-11T10:13:46.705Z,94.00
2022-09-11T10:16:27.565Z,93.00
2022-09-11T10:18:58.233Z,93.40
2022-09-11T10:21:39.394Z,93.80
2022-09-11T10:24:24.285Z,92.30
2022-09-11T10:26:56.946Z,93.00
2022-09-11T10:32:43.356Z,93.00
2022-09-11T10:35:20.730Z,93.50
2022-09-11T10:47:25.144Z,92.20
2022-09-11T10:53:51.534Z,93.30
2022-09-11T10:56:35.856Z,92.90
2022-09-11T10:59:06.637Z,93.00
2022-09-11T11:01:35.221Z,91.90
2022-09-11T11:04:04.267Z,90.90
2022-09-11T11:06:55.447Z,91.30
2022-09-11T11:09:39.889Z,91.80
2022-09-11T11:12:57.343Z,91.70
2022-09-11T11:15:30.340Z,91.40
2022-09-11T11:18:18.861Z,90.90
2022-09-11T11:21:04.926Z,90.80
2022-09-11T11:23:55.130Z,90.20
2022-09-11T11:26:36.930Z,89.30
2022-09-11T11:29:41.390Z,89.40
2022-09-11T11:32:38.443Z,86.00
2022-09-11T11:35:15.608Z,88.60
2022-09-11T11:37:47.042Z,85.40
2022-09-11T11:40:24.273Z,88.00
2022-09-11T11:43:04.904Z,88.00
2022-09-11T11:45:57.487Z,89.00
2022-09-11T11:48:59.223Z,89.80
2022-09-11T11:52:03.830Z,90.30
2022-09-11T11:54:52.587Z,90.20
2022-09-11T11:57:43.061Z,90.20
2022-09-11T12:00:15.718Z,89.80
2022-09-11T12:03:16.297Z,90.70
2022-09-11T12:05:47.449Z,89.20
2022-09-11T12:08:17.326Z,89.20
2022-09-11T12:10:58.342Z,87.00
2022-09-11T12:13:36.755Z,87.90
2022-09-11T12:16:15.355Z,89.40
2022-09-11T12:19:01.521Z,88.60
2022-09-11T12:21:38.050Z,90.00
2022-09-11T12:24:09.067Z,90.00
2022-09-11T12:26:59.289Z,90.00
2022-09-11T12:29:44.406Z,89.90
2022-09-11T12:32:19.079Z,89.80
2022-09-11T12:34:46.238Z,90.60
2022-09-11T12:37:34.595Z,89.40
2022-09-11T12:40:16.971Z,90.00
2022-09-11T12:42:45.975Z,88.40
2022-09-11T12:45:38.619Z,88.10
2022-09-11T12:48:13.210Z,90.00
2022-09-11T12:50:39.919Z,84.90
2022-09-11T12:53:13.847Z,85.50
2022-09-11T12:55:58.884Z,86.70
2022-09-11T12:58:31.094Z,86.00
2022-09-11T13:01:03.196Z,85.90
2022-09-11T13:03:30.008Z,84.00
2022-09-11T13:06:04.642Z,84.10
2022-09-11T13:08:34.614Z,82.60
2022-09-11T13:11:40.219Z,84.00
2022-09-11T13:14:30.038Z,84.90
2022-09-11T13:16:58.163Z,79.40
2022-09-11T13:19:32.198Z,81.10
2022-09-11T13:21:58.912Z,82.30
2022-09-11T13:24:32.835Z,84.30
2022-09-11T13:27:02.174Z,83.70
2022-09-11T13:29:30.464Z,82.80
2022-09-11T13:31:58.404Z,85.80
2022-09-11T13:34:27.751Z,83.10
2022-09-11T13:36:58.082Z,83.40
2022-09-11T13:39:31.996Z,84.60
2022-09-11T13:42:06.745Z,84.80
2022-09-11T13:44:54.660Z,84.50
2022-09-11T13:47:32.675Z,86.30
2022-09-11T13:50:03.792Z,87.00
2022-09-11T13:52:34.631Z,86.90
2022-09-11T13:55:11.209Z,87.20
2022-09-11T14:00:50.043Z,83.10
2022-09-11T14:03:48.250Z,84.90
2022-09-11T14:09:10.165Z,78.40
2022-09-11T14:11:46.118Z,80.30
2022-09-11T14:18:01.304Z,82.30
2022-09-11T14:20:41.551Z,79.90
2022-09-11T14:23:27.860Z,82.40
2022-09-11T14:26:43.931Z,78.30
2022-09-11T14:32:46.232Z,74.40
2022-09-11T14:35:21.242Z,75.40
2022-09-11T14:37:56.859Z,76.40
2022-09-11T14:40:28.777Z,75.60
2022-09-11T14:48:48.384Z,79.70
2022-09-11T14:51:25.064Z,77.90
2022-09-11T14:54:07.939Z,78.10
2022-09-11T14:56:51.953Z,78.60
2022-09-11T15:02:23.065Z,81.30
2022-09-11T15:04:55.416Z,80.00
2022-09-11T15:07:26.842Z,76.40
2022-09-11T15:10:11.196Z,77.50
2022-09-11T15:12:42.564Z,77.80
2022-09-11T15:15:16.465Z,78.70
2022-09-11T15:17:48.913Z,79.10
2022-09-11T15:20:23.257Z,78.00
2022-09-11T15:22:54.435Z,78.30
2022-09-11T15:25:25.826Z,78.70
2022-09-11T15:28:04.378Z,78.60
2022-09-11T15:30:42.643Z,78.30
2022-09-11T15:33:13.704Z,75.00
2022-09-11T15:35:44.440Z,78.60
2022-09-11T15:38:16.202Z,80.20
2022-09-11T15:40:46.730Z,78.90
2022-09-11T15:43:16.265Z,81.80
2022-09-11T15:45:50.614Z,79.60
2022-09-11T15:48:20.555Z,80.90
2022-09-11T15:51:03.907Z,81.10
2022-09-11T15:53:34.387Z,81.60
2022-09-11T15:56:06.638Z,81.40
2022-09-11T15:58:39.674Z,66.20
2022-09-11T16:01:50.486Z,61.70
2022-09-11T16:04:35.997Z,57.50
2022-09-11T16:07:19.457Z,51.00
2022-09-11T16:09:55.661Z,48.60
2022-09-11T16:18:24.295Z,52.60
2022-09-11T16:21:20.494Z,50.70
2022-09-11T16:32:59.361Z,57.60
2022-09-11T16:35:43.257Z,61.00
2022-09-11T16:41:13.302Z,52.30
2022-09-11T16:43:41.746Z,53.30
2022-09-11T16:46:08.739Z,55.20
2022-09-11T16:48:37.000Z,57.70
2022-09-11T16:51:03.841Z,55.10
2022-09-11T16:53:31.746Z,50.00
2022-09-11T16:55:58.363Z,50.10
2022-09-11T16:58:25.002Z,51.40
2022-09-11T17:00:51.677Z,55.40
2022-09-11T17:03:18.940Z,57.20
2022-09-11T17:05:53.874Z,52.80
2022-09-11T17:08:21.394Z,60.70
2022-09-11T17:10:49.833Z,60.70
2022-09-11T17:13:16.611Z,68.00
2022-09-11T17:15:43.443Z,69.80
2022-09-11T17:18:10.837Z,65.00
2022-09-11T17:20:37.496Z,69.10
2022-09-11T17:23:04.604Z,66.80
2022-09-11T17:25:31.762Z,67.50
2022-09-11T17:27:58.512Z,69.00
2022-09-11T17:30:25.114Z,68.00
2022-09-11T17:32:51.697Z,69.00
2022-09-11T17:35:18.406Z,68.80
2022-09-11T17:37:45.921Z,69.00
2022-09-11T17:40:13.805Z,69.90
2022-09-11T17:42:40.735Z,72.00
2022-09-11T17:45:08.252Z,72.90
2022-09-11T17:47:34.915Z,74.10
2022-09-11T17:50:01.598Z,74.20
2022-09-11T17:52:29.827Z,74.80
2022-09-11T17:54:56.689Z,75.10
2022-09-11T17:57:25.858Z,75.90
2022-09-11T17:59:55.843Z,75.80
2022-09-11T18:02:24.080Z,77.00
2022-09-11T18:04:54.483Z,77.20
2022-09-11T18:07:26.245Z,78.00
2022-09-11T18:09:56.486Z,79.50
2022-09-11T18:12:26.663Z,80.00
2022-09-11T18:14:59.741Z,80.00
2022-09-11T18:17:32.670Z,80.50
2022-09-11T18:20:03.943Z,80.70
2022-09-11T18:22:34.875Z,80.00
2022-09-11T18:25:06.002Z,82.30
2022-09-11T18:27:39.822Z,82.50
2022-09-11T18:30:14.232Z,83.10
2022-09-11T18:32:44.447Z,86.00
2022-09-11T18:35:12.724Z,86.40
2022-09-11T18:37:43.335Z,86.60
2022-09-11T18:40:15.114Z,87.40
2022-09-11T18:42:49.037Z,87.20
2022-09-11T18:45:22.830Z,88.10
2022-09-11T18:47:53.768Z,89.10
2022-09-11T18:50:23.730Z,90.40
2022-09-11T18:52:57.717Z,90.40
2022-09-11T18:55:47.997Z,90.80
2022-09-11T18:58:40.696Z,90.90
2022-09-11T19:04:06.854Z,90.70
2022-09-11T19:09:26.307Z,93.90
2022-09-11T19:12:00.478Z,93.10
2022-09-11T19:14:32.633Z,93.90
2022-09-11T19:17:01.483Z,94.70
2022-09-11T19:22:22.858Z,93.40
2022-09-11T19:24:52.349Z,95.30
2022-09-11T19:27:23.041Z,95.30
2022-09-11T19:29:54.004Z,96.60
2022-09-11T19:32:26.921Z,97.20
2022-09-11T19:35:01.140Z,96.90
2022-09-11T19:37:30.821Z,96.50
2022-09-11T19:40:01.196Z,96.90
2022-09-11T19:42:31.934Z,98.00
2022-09-11T19:45:02.430Z,97.70
2022-09-11T19:47:32.044Z,99.30
2022-09-11T19:50:01.132Z,98.40
2022-09-11T19:52:33.034Z,98.20
2022-09-11T20:01:02.286Z,99.80
2022-09-11T20:03:34.770Z,99.10
2022-09-11T20:06:08.701Z,99.90
2022-09-11T20:11:32.613Z,99.30
2022-09-11T20:14:02.338Z,99.90
2022-09-11T20:16:34.078Z,99.90
2022-09-11T20:19:09.344Z,99.90
2022-09-11T20:21:38.305Z,99.90
2022-09-11T20:24:11.230Z,99.90
2022-09-11T20:26:39.917Z,99.90
2022-09-11T20:29:13.749Z,99.90
2022-09-11T20:31:49.126Z,99.90
2022-09-11T20:34:22.298Z,99.90
2022-09-11T20:36:57.904Z,99.90
2022-09-11T20:45:24.765Z,99.90
2022-09-11T20:48:00.682Z,99.90
2022-09-11T20:50:31.781Z,99.90
2022-09-11T20:53:01.709Z,99.90
2022-09-11T20:55:31.332Z,99.90
2022-09-11T20:58:01.686Z,99.90
2022-09-11T21:00:30.119Z,99.90
2022-09-11T21:03:00.555Z,99.90
2022-09-11T21:05:28.602Z,99.90
2022-09-11T21:11:10.567Z,99.90
2022-09-11T21:13:39.642Z,99.90
2022-09-11T21:16:09.000Z,99.90
2022-09-11T21:18:37.848Z,99.90
2022-09-11T21:21:08.456Z,99.90
2022-09-11T21:26:59.632Z,99.90
2022-09-11T21:29:28.812Z,99.90
2022-09-11T21:32:01.080Z,99.90
2022-09-11T21:34:42.459Z,99.90
2022-09-11T21:37:25.787Z,99.90
2022-09-11T21:40:16.379Z,99.90
2022-09-11T21:43:05.590Z,99.90
2022-09-11T21:45:42.290Z,99.90
2022-09-11T21:51:13.651Z,99.90
2022-09-11T21:53:56.163Z,99.90
2022-09-11T21:56:35.669Z,99.90
2022-09-11T21:59:07.367Z,99.90
2022-09-11T22:01:37.069Z,99.90
2022-09-11T22:04:07.762Z,99.90
2022-09-11T22:06:39.713Z,99.90
2022-09-11T22:09:08.298Z,99.90
2022-09-11T22:11:36.798Z,99.90
2022-09-11T22:14:05.485Z,99.90
2022-09-11T22:16:34.698Z,99.90
2022-09-11T22:19:05.346Z,99.90
2022-09-11T22:21:33.792Z,99.90
2022-09-11T22:24:02.895Z,99.90
2022-09-11T22:26:33.000Z,99.90
2022-09-11T22:29:02.204Z,99.90
2022-09-11T22:31:31.997Z,99.90
2022-09-11T22:34:00.893Z,99.90
2022-09-11T22:36:29.850Z,99.90
2022-09-11T22:39:08.255Z,99.90
2022-09-11T22:41:36.937Z,99.90
2022-09-11T22:44:05.209Z,99.90
2022-09-11T22:46:33.875Z,99.90
2022-09-11T22:49:04.386Z,99.90
2022-09-11T22:51:36.096Z,99.90
2022-09-11T22:54:05.233Z,99.90
2022-09-11T22:56:34.411Z,99.90
2022-09-11T22:59:05.322Z,99.90
2022-09-11T23:01:34.829Z,99.90
2022-09-11T23:04:03.725Z,99.90
2022-09-11T23:06:51.442Z,99.90
2022-09-11T23:09:20.171Z,99.90
2022-09-11T23:11:53.547Z,99.90
2022-09-11T23:14:23.897Z,99.90
2022-09-11T23:16:55.950Z,99.90
2022-09-11T23:19:25.317Z,99.90
2022-09-11T23:21:55.731Z,99.90
2022-09-11T23:24:26.310Z,99.90
2022-09-11T23:26:56.381Z,99.90
2022-09-11T23:29:25.722Z,99.90
2022-09-11T23:31:57.729Z,99.90
2022-09-11T23:34:26.681Z,99.90
2022-09-11T23:36:56.606Z,99.90
2022-09-11T23:39:25.287Z,99.90
2022-09-11T23:41:57.661Z,99.90
2022-09-11T23:44:29.003Z,99.90
2022-09-11T23:46:58.985Z,99.90
2022-09-11T23:49:35.645Z,99.90
2022-09-11T23:52:05.524Z,99.90
2022-09-11T23:54:33.853Z,99.90
2022-09-11T23:57:02.773Z,99.90
2022-09-11T23:59:35.674Z,99.90
